• Join FlightAware (Why Join?)
  • Login
  • US Flag 
05:24PM EDT


 

Airport Tracker/Info


-or-


 

Live Flight TrackerFlight Track Log ✈ SIA61 ✈ 07-May-2013 ✈ KIAH - UUDD / DME

Flight Track Log - Related Links

Times and Time Zones

All times are in EDT time to prevent confusion due to time zone crossing. See the SIA61 flight status page for this flight to view local times or setup timezone preferences in your user account.

Time Position Orientation Groundspeed Altitude Reporting Facility
EDT Latitude Longitude Course Direction KTS MPH feet Rate Location/Type
07:02PM 29.9525 -95.3362 159° South 199 229 800  Level FlightAware ADS-B
07:02PM 29.9500 -95.3350 157° South 198 228 1,000 2,460 Climbing FlightAware ADS-B
07:02PM 29.9415 -95.3335 171° South 198 228 1,300 2,280 Climbing FlightAware ADS-B
07:02PM 29.9382 -95.3340 187° South 201 231 1,500 2,520 Climbing FlightAware ADS-B
07:02PM 29.9351 -95.3348 193° South 205 236 1,600 1,500 Climbing FlightAware ADS-B
07:03PM 29.9308 -95.3369 203° Southwest 212 244 1,700 1,680 Climbing FlightAware ADS-B
07:03PM 29.9235 -95.3438 219° Southwest 219 252 2,000 1,680 Climbing FlightAware ADS-B
07:03PM 29.9204 -95.3488 234° Southwest 226 260 2,100 1,200 Climbing FlightAware ADS-B
07:03PM 29.9182 -95.3543 245° Southwest 229 264 2,200 1,980 Climbing FlightAware ADS-B
07:03PM 29.9166 -95.3624 257° West 231 266 2,500 1,980 Climbing FlightAware ADS-B
07:03PM 29.9166 -95.3685 270° West 231 266 2,600 1,680 Climbing FlightAware ADS-B
07:03PM 29.9189 -95.3791 284° West 233 268 2,900 2,100 Climbing FlightAware ADS-B
07:03PM 29.9215 -95.3848 298° West 237 273 3,100 1,980 Climbing FlightAware ADS-B
07:03PM 29.9240 -95.3887 306° West 238 274 3,200 1,320 Climbing FlightAware ADS-B
07:03PM 29.9279 -95.3932 315° West 239 275 3,300 1,980 Climbing FlightAware ADS-B
07:03PM 29.9313 -95.3960 324° Northwest 240 276 3,500 1,980 Climbing FlightAware ADS-B
07:04PM 29.9361 -95.3989 332° Northwest 243 280 3,600 720 Climbing FlightAware ADS-B
07:04PM 29.9399 -95.4006 339° North 246 283 3,600 840 Level FlightAware ADS-B
07:04PM 29.9439 -95.4017 347° North 248 285 3,700 1,500 Climbing FlightAware ADS-B
07:04PM 29.9487 -95.4023 354° North 247 284 3,800 1,800 Climbing FlightAware ADS-B
07:04PM 29.9554 -95.4018 North 250 288 4,000 1,320 Climbing FlightAware ADS-B
07:04PM 29.9586 -95.4012 North 253 291 4,000 840 Level FlightAware ADS-B
07:04PM 29.9637 -95.3996 15° North 256 295 4,100 1,980 Climbing FlightAware ADS-B
07:04PM 29.9697 -95.3970 21° North 258 297 4,300 1,980 Climbing FlightAware ADS-B
07:04PM 29.9837 -95.3901 23° Northeast 262 302 4,700 1,800 Climbing FlightAware ADS-B
07:04PM 29.9918 -95.3869 19° North 267 307 4,900 1,320 Climbing FlightAware ADS-B
07:05PM 30.0052 -95.3840 11° North 278 320 5,100 1,320 Climbing FlightAware ADS-B
07:05PM 30.0193 -95.3821 North 285 328 5,400 1,980 Climbing FlightAware ADS-B
07:05PM 30.0405 -95.3802 North 293 337 6,000 2,280 Climbing FlightAware ADS-B
07:05PM 30.0611 -95.3785 North 295 339 6,600 2,400 Climbing FlightAware ADS-B
07:06PM 30.0821 -95.3766 North 295 339 7,200 2,400 Climbing FlightAware ADS-B
07:06PM 30.1034 -95.3747 North 301 346 7,800 2,160 Climbing FlightAware ADS-B
07:06PM 30.1120 -95.3739 North 302 348 8,000 1,980 Climbing FlightAware ADS-B
07:06PM 30.1201 -95.3725 North 303 349 8,200 2,400 Climbing FlightAware ADS-B
07:06PM 30.1270 -95.3707 13° North 304 350 8,400 2,400 Climbing FlightAware ADS-B
07:06PM 30.1333 -95.3687 15° North 306 352 8,600 2,400 Climbing FlightAware ADS-B
07:06PM 30.1395 -95.3662 19° North 306 352 8,800 2,400 Climbing FlightAware ADS-B
07:06PM 30.1461 -95.3632 21° North 307 353 9,000 2,460 Climbing FlightAware ADS-B
07:06PM 30.1556 -95.3579 26° Northeast 309 356 9,300 2,340 Climbing FlightAware ADS-B
07:07PM 30.1942 -95.3324 30° Northeast 316 364 10,500 1,740 Climbing FlightAware ADS-B
07:07PM 30.2358 -95.3044 30° Northeast 343 395 11,100 1,020 Climbing FlightAware ADS-B
07:08PM 30.2794 -95.2749 30° Northeast 368 423 11,600 1,440 Climbing FlightAware ADS-B
07:08PM 30.3243 -95.2447 30° Northeast 377 434 12,600 2,100 Climbing FlightAware ADS-B
07:09PM 30.3701 -95.2139 30° Northeast 380 437 13,700 2,160 Climbing FlightAware ADS-B
07:09PM 30.4167 -95.1828 30° Northeast 387 445 14,800 1,980 Climbing FlightAware ADS-B
07:10PM 30.4660 -95.1500 30° Northeast 393 452 15,800 1,620 Climbing FlightAware ADS-B
07:10PM 30.5165 -95.1193 28° Northeast 406 467 16,500 1,620 Climbing FlightAware ADS-B
07:11PM 30.5705 -95.0864 28° Northeast 413 475 17,500 1,800 Climbing FlightAware ADS-B
07:12PM 30.6222 -95.0545 28° Northeast 419 482 18,400 1,740 Climbing FlightAware ADS-B
07:12PM 30.6746 -95.0219 28° Northeast 425 489 19,300 1,740 Climbing FlightAware ADS-B
07:13PM 30.7277 -94.9888 28° Northeast 430 495 20,200 1,620 Climbing FlightAware ADS-B
07:13PM 30.7810 -94.9554 28° Northeast 435 501 21,000 1,560 Climbing FlightAware ADS-B
07:14PM 30.8372 -94.9205 28° Northeast 441 507 21,800 1,380 Climbing FlightAware ADS-B
07:14PM 30.8949 -94.8845 28° Northeast 447 514 22,500 1,200 Climbing FlightAware ADS-B
07:15PM 30.9501 -94.8500 28° Northeast 454 522 23,100 1,260 Climbing FlightAware ADS-B
07:15PM 31.0064 -94.8147 28° Northeast 459 528 23,800 1,380 Climbing FlightAware ADS-B
07:16PM 31.0629 -94.7793 28° Northeast 464 534 24,500 1,260 Climbing FlightAware ADS-B
07:16PM 31.1203 -94.7434 28° Northeast 468 539 25,100 1,080 Climbing FlightAware ADS-B
07:17PM 31.1778 -94.7072 28° Northeast 474 545 25,600 1,020 Climbing FlightAware ADS-B
07:17PM 31.2373 -94.6663 30° Northeast 481 554 26,200 1,200 Climbing FlightAware ADS-B
07:18PM 31.2957 -94.6250 31° Northeast 483 556 26,900 1,140 Climbing FlightAware ADS-B
07:18PM 31.3550 -94.5834 31° Northeast 487 560 27,400 1,020 Climbing FlightAware ADS-B
07:19PM 31.4189 -94.5391 31° Northeast 491 565 28,000 1,140 Climbing FlightAware ADS-B
07:19PM 31.4790 -94.4975 31° Northeast 494 568 28,600 900 Climbing FlightAware ADS-B
07:20PM 31.5435 -94.4528 31° Northeast 492 566 29,000 360 Climbing FlightAware ADS-B
07:20PM 31.6032 -94.4113 31° Northeast 495 570 29,000  Level FlightAware ADS-B
07:21PM 31.6655 -94.3681 31° Northeast 495 570 29,000  Level FlightAware ADS-B
07:21PM 31.7259 -94.3261 31° Northeast 496 571 29,000  Level FlightAware ADS-B
07:24PM 32.1030 -94.0612 31° Northeast 498 573 29,000  Level FlightAware ADS-B
07:25PM 32.2190 -93.9792 31° Northeast 497 572 29,000  Level FlightAware ADS-B
07:26PM 32.2856 -93.9321 31° Northeast 495 570 29,000  Level FlightAware ADS-B
07:26PM 32.3067 -93.9133 31° Northeast 486 559 29,000  Level Fort Worth Center
07:27PM 32.4233 -93.8300 31° Northeast 486 559 29,000  Level Fort Worth Center
07:28PM 32.5400 -93.7467 31° Northeast 486 559 29,000  Level Fort Worth Center
07:29PM 32.6586 -93.6628 31° Northeast 480 552 29,000  Level Fort Worth Center
07:30PM 32.7792 -93.5764 31° Northeast 485 558 29,000  Level Fort Worth Center
07:31PM 32.8933 -93.4922 32° Northeast 485 558 29,000  Level Fort Worth Center
07:32PM 33.0097 -93.4078 31° Northeast 485 558 29,000  Level Fort Worth Center
07:33PM 33.1281 -93.3256 30° Northeast 480 552 29,000  Level Fort Worth Center
07:34PM 33.2444 -93.2433 31° Northeast 480 552 29,000  Level Fort Worth Center
07:35PM 33.3606 -93.1608 31° Northeast 480 552 29,000  Level Fort Worth Center
07:36PM 33.4731 -93.0817 30° Northeast 484 557 29,000  Level Memphis Center
07:37PM 33.5878 -92.9956 32° Northeast 484 557 29,000  Level Memphis Center
07:38PM 33.7064 -92.9092 31° Northeast 484 557 29,000  Level Memphis Center
07:39PM 33.8228 -92.8250 31° Northeast 484 557 29,000  Level Memphis Center
07:40PM 33.9394 -92.7383 32° Northeast 479 551 29,000  Level Memphis Center
07:41PM 34.0578 -92.6511 31° Northeast 479 551 29,000  Level Memphis Center
07:42PM 34.1553 -92.5736 33° Northeast 479 551 29,000  Level Memphis Center
07:43PM 34.2714 -92.4886 31° Northeast 479 551 29,000  Level Memphis Center
07:44PM 34.3878 -92.3983 33° Northeast 484 557 29,000  Level Memphis Center
07:45PM 34.5039 -92.3128 31° Northeast 484 557 29,000  Level Memphis Center
07:46PM 34.6178 -92.2247 32° Northeast 484 557 29,000  Level Memphis Center
07:47PM 34.7319 -92.1361 33° Northeast 484 557 29,000  Level Memphis Center
07:48PM 34.8439 -92.0397 35° Northeast 484 557 29,000  Level Memphis Center
07:49PM 34.9556 -91.9458 35° Northeast 489 563 29,000  Level Memphis Center
07:50PM 35.0653 -91.8514 35° Northeast 489 563 29,000  Level Memphis Center
07:51PM 35.1747 -91.7594 34° Northeast 489 563 29,000  Level Memphis Center
07:52PM 35.2883 -91.6647 34° Northeast 489 563 29,000  Level Memphis Center
07:53PM 35.4019 -91.5694 34° Northeast 489 563 29,000  Level Memphis Center
07:54PM 35.5136 -91.4717 35° Northeast 489 563 29,000  Level Memphis Center
07:55PM 35.6228 -91.3811 34° Northeast 488 562 29,000  Level Memphis Center
07:56PM 35.7403 -91.2728 37° Northeast 483 556 29,000  Level Memphis Center
07:57PM 35.8558 -91.1767 34° Northeast 478 550 29,000  Level Memphis Center
07:58PM 35.9625 -91.0828 35° Northeast 478 550 29,000  Level Memphis Center
07:59PM 36.0736 -90.9861 35° Northeast 478 550 29,000  Level Memphis Center
08:00PM 36.1886 -90.8997 31° Northeast 473 544 29,000  Level Memphis Center
08:01PM 36.2911 -90.8206 32° Northeast 473 544 29,000  Level Memphis Center
08:02PM 36.4061 -90.7333 31° Northeast 478 550 29,000  Level Memphis Center
08:03PM 36.5211 -90.6461 31° Northeast 478 550 29,000  Level Memphis Center
08:05PM 36.7239 -90.4917 31° Northeast 482 555 29,000  Level Kansas City Center
08:06PM 36.8381 -90.4039 32° Northeast 481 554 29,000  Level Kansas City Center
08:07PM 36.9536 -90.3142 32° Northeast 483 556 29,000  Level Kansas City Center
08:08PM 37.0669 -90.2278 31° Northeast 479 551 29,000  Level Kansas City Center
08:09PM 37.1817 -90.1389 32° Northeast 480 552 29,000  Level Kansas City Center
08:10PM 37.2956 -90.0492 32° Northeast 482 555 29,000  Level Kansas City Center
08:16PM 37.9480 -89.5370 32° Northeast 482 555 29,000  Level FlightAware
08:16PM 38.0070 -89.4890 33° Northeast 483 556 29,000  Level FlightAware
08:17PM 38.0980 -89.4170 32° Northeast 484 557 29,000  Level FlightAware
08:18PM 38.1720 -89.3580 32° Northeast 484 557 29,000  Level FlightAware
08:18PM 38.2500 -89.2960 32° Northeast 482 555 29,000  Level FlightAware
08:19PM 38.3440 -89.2210 32° Northeast 481 554 29,000  Level FlightAware
08:20PM 38.4140 -89.1590 35° Northeast 482 555 29,000  Level FlightAware
08:21PM 38.4760 -89.0780 46° Northeast 484 557 29,000  Level FlightAware
08:21PM 38.5450 -88.9770 49° Northeast 484 557 29,000  Level FlightAware
08:22PM 38.6030 -88.8910 49° Northeast 483 556 29,000  Level FlightAware
08:23PM 38.6700 -88.7920 49° Northeast 481 554 29,000  Level FlightAware
08:23PM 38.7290 -88.7060 49° Northeast 482 555 29,000  Level FlightAware
08:24PM 38.7800 -88.6300 49° Northeast 483 556 29,000  Level FlightAware
08:25PM 38.8490 -88.5280 49° Northeast 484 557 29,000 240 Level FlightAware
08:25PM 38.9120 -88.4330 50° Northeast 483 556 29,400 1,080 Climbing FlightAware
08:26PM 38.9730 -88.3430 49° Northeast 476 548 30,600 1,080 Climbing FlightAware
08:27PM 39.0290 -88.2590 49° Northeast 474 545 31,000 240 Climbing FlightAware
08:28PM 39.0940 -88.1610 49° Northeast 476 548 31,000  Level FlightAware
08:28PM 39.1510 -88.0750 49° Northeast 476 548 31,000  Level FlightAware
08:29PM 39.2000 -88.0010 49° Northeast 477 549 31,000  Level FlightAware
08:30PM 39.2760 -87.8860 49° Northeast 478 550 31,000  Level FlightAware
08:30PM 39.3330 -87.8000 49° Northeast 476 548 31,000  Level FlightAware
08:31PM 39.3890 -87.7140 50° Northeast 476 548 31,000  Level FlightAware
08:32PM 39.4500 -87.6220 49° Northeast 475 547 31,000  Level FlightAware
08:32PM 39.4980 -87.5470 50° Northeast 476 548 31,000  Level FlightAware
08:33PM 39.5590 -87.4540 50° Northeast 476 548 31,000  Level FlightAware
08:34PM 39.6200 -87.3610 50° Northeast 475 547 31,000  Level FlightAware
08:35PM 39.6850 -87.2590 50° Northeast 481 554 31,000  Level FlightAware
08:35PM 39.7430 -87.1690 50° Northeast 482 555 31,000  Level FlightAware
08:36PM 39.8090 -87.0660 50° Northeast 480 552 31,000  Level FlightAware
08:37PM 39.8710 -86.9690 50° Northeast 480 552 31,000  Level FlightAware
08:37PM 39.9300 -86.8780 50° Northeast 480 552 31,000  Level FlightAware
08:38PM 39.9850 -86.7910 50° Northeast 481 554 31,000  Level FlightAware
08:39PM 40.0500 -86.6900 50° Northeast 482 555 31,000  Level FlightAware
08:39PM 40.1070 -86.5990 51° Northeast 481 554 31,000  Level FlightAware
08:40PM 40.1690 -86.5010 50° Northeast 481 554 31,000  Level FlightAware
08:41PM 40.2240 -86.4130 51° Northeast 480 552 31,000  Level FlightAware
08:42PM 40.2940 -86.3020 50° Northeast 479 551 31,000  Level FlightAware
08:42PM 40.3610 -86.1940 51° Northeast 476 548 31,000  Level FlightAware
08:43PM 40.4200 -86.1000 50° Northeast 476 548 31,000  Level FlightAware
08:44PM 40.4760 -86.0100 51° Northeast 476 548 31,000  Level FlightAware
08:45PM 40.5400 -85.9060 51° Northeast 476 548 31,000  Level FlightAware
08:45PM 40.5960 -85.8160 51° Northeast 477 549 31,000  Level FlightAware
08:46PM 40.6590 -85.7140 51° Northeast 475 547 31,000  Level FlightAware
08:47PM 40.7330 -85.5930 51° Northeast 475 547 31,000  Level FlightAware
08:48PM 40.7840 -85.5090 51° Northeast 475 547 31,000  Level FlightAware
08:48PM 40.8460 -85.4070 51° Northeast 478 550 31,000  Level FlightAware
08:49PM 40.9060 -85.3090 51° Northeast 476 548 31,000  Level FlightAware
08:50PM 40.9640 -85.2150 51° Northeast 476 548 31,000  Level FlightAware
08:50PM 41.0410 -85.1330 39° Northeast 479 551 31,000  Level FlightAware
08:51PM 41.1160 -85.0660 34° Northeast 480 552 31,000  Level FlightAware
08:52PM 41.1900 -85.0000 34° Northeast 480 552 31,000  Level FlightAware
08:53PM 41.2700 -84.9290 34° Northeast 480 552 31,000  Level FlightAware
08:53PM 41.3440 -84.8630 34° Northeast 480 552 31,000  Level FlightAware
08:54PM 41.4300 -84.7860 34° Northeast 479 551 31,000  Level FlightAware
08:55PM 41.5000 -84.7220 34° Northeast 478 550 31,000  Level FlightAware
08:55PM 41.5770 -84.6530 34° Northeast 478 550 31,000  Level FlightAware
08:56PM 41.6570 -84.5810 34° Northeast 478 550 31,000  Level FlightAware
08:57PM 41.7290 -84.5160 34° Northeast 479 551 31,000  Level FlightAware
08:57PM 41.8120 -84.4390 35° Northeast 479 551 31,000  Level FlightAware
08:58PM 41.8830 -84.3750 34° Northeast 477 549 31,000  Level FlightAware
08:59PM 41.9630 -84.3020 34° Northeast 477 549 31,000  Level FlightAware
08:59PM 42.0160 -84.2530 34° Northeast 477 549 31,000  Level FlightAware
09:00PM 42.1130 -84.1630 35° Northeast 477 549 31,000  Level FlightAware
09:01PM 42.1740 -84.1070 34° Northeast 477 549 31,000  Level FlightAware
09:02PM 42.2540 -84.0320 35° Northeast 477 549 31,000  Level FlightAware
09:02PM 42.3200 -83.9710 34° Northeast 477 549 31,000  Level FlightAware
09:03PM 42.4070 -83.8910 34° Northeast 478 550 31,000  Level FlightAware
09:04PM 42.4770 -83.8250 35° Northeast 479 551 31,000  Level FlightAware
09:04PM 42.5530 -83.7530 35° Northeast 477 549 31,000  Level FlightAware
09:05PM 42.6260 -83.6840 35° Northeast 477 549 31,000  Level FlightAware
09:06PM 42.7270 -83.5890 35° Northeast 478 550 31,000  Level FlightAware
09:07PM 42.8050 -83.5160 34° Northeast 479 551 31,000  Level FlightAware
09:07PM 42.8750 -83.4490 35° Northeast 479 551 31,000  Level FlightAware
09:08PM 42.9750 -83.3530 35° Northeast 480 552 31,000  Level FlightAware
09:09PM 43.0550 -83.2770 35° Northeast 480 552 31,000  Level FlightAware
09:10PM 43.1180 -83.2160 35° Northeast 479 551 31,000  Level FlightAware
09:10PM 43.1940 -83.1430 35° Northeast 480 552 31,000  Level FlightAware
09:11PM 43.2630 -83.0760 35° Northeast 480 552 31,000  Level FlightAware
09:12PM 43.3570 -82.9850 35° Northeast 481 554 31,000  Level FlightAware
09:12PM 43.4320 -82.9120 35° Northeast 482 555 31,000  Level FlightAware
09:13PM 43.5070 -82.8390 35° Northeast 483 556 31,000  Level FlightAware
09:14PM 43.5850 -82.7620 36° Northeast 486 559 31,000  Level FlightAware
09:14PM 43.6550 -82.6940 35° Northeast 485 558 31,000  Level FlightAware
09:15PM 43.7380 -82.6130 35° Northeast 485 558 31,000  Level FlightAware
09:16PM 43.8230 -82.5280 36° Northeast 485 558 31,000  Level FlightAware
09:17PM 43.8930 -82.4590 35° Northeast 487 560 31,000  Level FlightAware
09:18PM 44.0080 -82.3450 35° Northeast 485 558 31,000  Level FlightAware
09:18PM 44.0770 -82.2760 36° Northeast 485 558 31,000  Level FlightAware
09:19PM 44.1530 -82.2000 36° Northeast 486 559 31,000  Level FlightAware
09:20PM 44.2350 -82.1120 38° Northeast 485 558 31,000  Level FlightAware
09:20PM 44.2930 -82.0460 39° Northeast 485 558 31,000  Level FlightAware
09:21PM 44.3690 -81.9580 40° Northeast 485 558 31,000  Level FlightAware
09:22PM 44.4440 -81.8710 40° Northeast 485 558 31,000  Level FlightAware
09:22PM 44.5010 -81.8050 40° Northeast 485 558 31,000  Level FlightAware
09:23PM 44.6010 -81.6880 40° Northeast 485 558 31,000  Level FlightAware
09:24PM 44.6600 -81.6200 39° Northeast 485 558 31,000  Level FlightAware
09:25PM 44.7630 -81.5340 31° Northeast 487 560 31,000  Level FlightAware
09:26PM 44.8950 -81.4280 30° Northeast 488 562 31,000  Level FlightAware
09:26PM 44.9540 -81.3810 29° Northeast 488 562 31,000  Level FlightAware
09:27PM 45.0380 -81.3100 31° Northeast 488 562 31,000  Level FlightAware
09:28PM 45.1250 -81.2230 35° Northeast 488 562 31,000  Level FlightAware
09:29PM 45.1980 -81.1490 36° Northeast 488 562 31,000  Level FlightAware
09:29PM 45.2660 -81.0780 36° Northeast 488 562 31,000  Level FlightAware
09:30PM 45.3450 -80.9940 37° Northeast 490 564 31,000  Level FlightAware
09:31PM 45.4360 -80.8990 36° Northeast 493 567 31,000  Level FlightAware
09:31PM 45.5070 -80.8240 37° Northeast 493 567 31,000  Level FlightAware
09:32PM 45.5820 -80.7450 36° Northeast 492 566 31,000  Level FlightAware
09:33PM 45.6620 -80.6590 37° Northeast 491 565 31,000  Level FlightAware
09:33PM 45.7240 -80.5940 36° Northeast 490 564 31,000  Level FlightAware
09:34PM 45.8090 -80.5030 37° Northeast 489 563 31,000  Level FlightAware
09:35PM 45.8840 -80.4220 37° Northeast 488 562 31,000  Level FlightAware
09:36PM 45.9630 -80.3370 37° Northeast 489 563 31,000  Level FlightAware
09:36PM 46.0340 -80.2610 37° Northeast 489 563 31,000  Level FlightAware
09:37PM 46.1080 -80.1800 37° Northeast 488 562 31,000  Level FlightAware
09:38PM 46.1730 -80.1100 37° Northeast 488 562 31,000  Level FlightAware
09:38PM 46.2670 -80.0070 37° Northeast 491 565 31,000  Level FlightAware
09:39PM 46.3410 -79.9270 37° Northeast 494 568 31,000  Level FlightAware
09:40PM 46.4110 -79.8490 38° Northeast 495 570 31,000  Level FlightAware
09:40PM 46.4970 -79.7550 37° Northeast 493 567 31,000  Level FlightAware
09:41PM 46.5660 -79.6780 37° Northeast 493 567 31,000  Level FlightAware
09:42PM 46.6400 -79.5970 37° Northeast 493 567 31,000  Level FlightAware
09:43PM 46.7020 -79.5290 37° Northeast 493 567 31,000  Level FlightAware
09:43PM 46.7640 -79.4600 37° Northeast 493 567 31,000  Level FlightAware
09:44PM 46.8260 -79.3920 37° Northeast 493 567 31,000  Level FlightAware
09:45PM 46.8880 -79.3240 37° Northeast 493 567 31,000  Level FlightAware
09:45PM 46.9500 -79.2560 37° Northeast 493 567 31,000  Level FlightAware
09:46PM 47.0270 -79.1700 37° Northeast 493 567 31,000  Level FlightAware
09:47PM 47.0890 -79.1020 37° Northeast 493 567 31,000  Level FlightAware
09:47PM 47.1510 -79.0330 37° Northeast 493 567 31,000  Level FlightAware
09:48PM 47.2130 -78.9640 37° Northeast 493 567 31,000  Level FlightAware
09:49PM 47.2900 -78.8780 37° Northeast 493 567 31,000  Level FlightAware
09:50PM 47.3520 -78.8090 37° Northeast 493 567 31,000  Level FlightAware
09:50PM 47.4140 -78.7410 37° Northeast 493 567 31,000  Level FlightAware
09:51PM 47.4760 -78.6720 37° Northeast 493 567 31,000  Level FlightAware
09:56PM 48.1340 -77.8700 39° Northeast 495 570 31,000  Level FlightAware
09:56PM 48.2020 -77.7930 37° Northeast 494 568 31,000  Level FlightAware
09:57PM 48.2640 -77.7230 37° Northeast 494 568 31,000  Level FlightAware
09:58PM 48.3260 -77.6530 37° Northeast 494 568 31,000  Level FlightAware
09:58PM 48.3880 -77.5820 37° Northeast 494 568 31,000  Level FlightAware
09:59PM 48.4650 -77.4940 37° Northeast 494 568 31,000  Level FlightAware
10:00PM 48.5270 -77.4240 37° Northeast 494 568 31,000  Level FlightAware
10:00PM 48.5890 -77.3530 37° Northeast 494 568 31,000  Level FlightAware
10:01PM 48.6520 -77.2820 37° Northeast 494 568 31,000  Level FlightAware
10:02PM 48.7140 -77.2110 37° Northeast 494 568 31,000  Level FlightAware
10:03PM 48.7910 -77.1230 37° Northeast 494 568 31,000  Level FlightAware
10:03PM 48.8530 -77.0520 37° Northeast 494 568 31,000  Level FlightAware
10:04PM 48.9150 -76.9800 37° Northeast 494 568 31,000  Level FlightAware
10:05PM 48.9770 -76.9090 37° Northeast 494 568 31,000  Level FlightAware
10:05PM 49.0550 -76.8200 37° Northeast 494 568 31,000  Level FlightAware
10:06PM 49.3833 -76.7667 37° Northeast 470 541 31,000  Level Montreal Center
10:07PM 49.5167 -76.6667 26° Northeast 490 564 31,000  Level Montreal Center
10:08PM 49.6333 -76.5667 29° Northeast 490 564 31,000  Level Montreal Center
10:09PM 49.7500 -76.4333 36° Northeast 480 552 31,000  Level Montreal Center
10:10PM 49.8500 -76.3333 33° Northeast 480 552 31,000  Level Montreal Center
10:11PM 49.9833 -76.2333 26° Northeast 480 552 31,000  Level Montreal Center
10:12PM 50.1000 -76.1167 33° Northeast 480 552 31,000  Level Montreal Center
10:13PM 50.2167 -76.0167 29° Northeast 480 552 31,000  Level Montreal Center
10:14PM 50.3333 -75.9167 29° Northeast 480 552 31,000  Level Montreal Center
10:15PM 50.4500 -75.8000 32° Northeast 480 552 31,000  Level Montreal Center
10:16PM 50.5667 -75.7000 29° Northeast 480 552 31,000  Level Montreal Center
10:17PM 50.6833 -75.6000 28° Northeast 480 552 31,000  Level Montreal Center
10:18PM 50.8000 -75.4833 32° Northeast 480 552 31,000  Level Montreal Center
10:19PM 50.9167 -75.3833 28° Northeast 480 552 31,000  Level Montreal Center
10:20PM 51.0167 -75.2667 36° Northeast 480 552 31,000  Level Montreal Center
10:21PM 51.1333 -75.1667 28° Northeast 480 552 31,000  Level Montreal Center
10:22PM 51.2500 -75.0167 39° Northeast 480 552 31,000  Level Montreal Center
10:23PM 51.3500 -74.8833 40° Northeast 480 552 31,000  Level Montreal Center
10:24PM 51.4500 -74.7500 40° Northeast 480 552 31,000  Level Montreal Center
10:25PM 51.5667 -74.6167 35° Northeast 480 552 31,000  Level Montreal Center
10:26PM 51.6667 -74.4667 43° Northeast 480 552 31,000  Level Montreal Center
10:27PM 51.7667 -74.3000 46° Northeast 490 564 31,000  Level Montreal Center
10:28PM 51.8667 -74.1667 39° Northeast 490 564 31,000  Level Montreal Center
10:29PM 51.9667 -74.0167 43° Northeast 480 552 31,000  Level Montreal Center
10:30PM 52.0833 -73.8833 35° Northeast 480 552 31,000  Level Montreal Center
10:31PM 52.1667 -73.7333 48° Northeast 480 552 31,000  Level Montreal Center
10:32PM 52.2667 -73.6000 39° Northeast 480 552 31,000  Level Montreal Center
10:33PM 52.3667 -73.4500 42° Northeast 490 564 31,000  Level Montreal Center
10:34PM 52.4833 -73.2833 41° Northeast 480 552 31,000  Level Montreal Center
10:35PM 52.5833 -73.1333 42° Northeast 480 552 31,000  Level Montreal Center
10:36PM 52.6833 -73.0000 39° Northeast 480 552 31,000  Level Montreal Center
10:37PM 52.7833 -72.8500 42° Northeast 480 552 31,000  Level Montreal Center
10:38PM 52.8667 -72.7000 47° Northeast 480 552 31,000  Level Montreal Center
10:39PM 52.9667 -72.5500 42° Northeast 480 552 31,000  Level Montreal Center
10:40PM 53.0667 -72.3833 45° Northeast 480 552 31,000  Level Montreal Center
10:41PM 53.1833 -72.2333 38° Northeast 480 552 31,000  Level Montreal Center
10:42PM 53.2833 -72.0833 42° Northeast 480 552 31,000  Level Montreal Center
10:43PM 53.3667 -71.9333 47° Northeast 480 552 31,000  Level Montreal Center
10:44PM 53.4667 -71.7833 42° Northeast 480 552 31,000  Level Montreal Center
10:45PM 53.5667 -71.6000 47° Northeast 480 552 31,000  Level Montreal Center
10:46PM 53.6500 -71.4500 47° Northeast 480 552 31,000  Level Montreal Center
10:47PM 53.7667 -71.2833 40° Northeast 480 552 31,000  Level Montreal Center
10:48PM 53.8667 -71.1333 41° Northeast 480 552 31,000  Level Montreal Center
10:49PM 53.9667 -70.9833 41° Northeast 480 552 31,000  Level Montreal Center
10:50PM 54.0500 -70.8333 47° Northeast 480 552 31,000  Level Montreal Center
10:51PM 54.1500 -70.6667 44° Northeast 480 552 31,000  Level Montreal Center
10:52PM 54.2500 -70.5167 41° Northeast 480 552 31,000  Level Montreal Center
10:53PM 54.3333 -70.3333 52° Northeast 480 552 31,000  Level Montreal Center
10:54PM 54.4333 -70.1667 44° Northeast 480 552 31,000  Level Montreal Center
10:55PM 54.5167 -70.0167 46° Northeast 480 552 31,000  Level Montreal Center
10:56PM 54.6167 -69.8500 44° Northeast 480 552 31,000  Level Montreal Center
10:57PM 54.7167 -69.6833 44° Northeast 480 552 31,000  Level Montreal Center
10:58PM 54.8167 -69.5333 41° Northeast 480 552 31,000  Level Montreal Center
10:59PM 54.9000 -69.3667 49° Northeast 460 529 31,000  Level Montreal Center
11:00PM 55.0000 -69.2333 37° Northeast 470 541 31,000  Level Montreal Center
11:01PM 55.1000 -69.0333 49° Northeast 470 541 31,000  Level Montreal Center
11:02PM 55.1833 -68.8833 46° Northeast 470 541 31,000  Level Montreal Center
11:03PM 55.2833 -68.7167 43° Northeast 470 541 31,000  Level Montreal Center
11:04PM 55.3667 -68.5500 49° Northeast 470 541 31,000  Level Montreal Center
11:05PM 55.4667 -68.3833 43° Northeast 470 541 31,000  Level Montreal Center
11:06PM 55.5500 -68.2167 48° Northeast 470 541 31,000  Level Montreal Center
11:07PM 55.6500 -68.0500 43° Northeast 470 541 31,000 540 Level Montreal Center
11:08PM 55.7333 -67.8833 48° Northeast 470 541 32,100 960 Climbing Montreal Center
11:09PM 55.8333 -67.7000 46° Northeast 470 541 33,000 420 Climbing Montreal Center
11:10PM 55.9167 -67.5333 48° Northeast 470 541 33,000  Level Montreal Center
11:11PM 56.0000 -67.3667 48° Northeast 470 541 33,000  Level Montreal Center
11:12PM 56.1000 -67.2000 43° Northeast 470 541 33,000  Level Montreal Center
11:13PM 56.1667 -67.0333 54° Northeast 460 529 33,000  Level Montreal Center
11:14PM 56.2667 -66.8500 45° Northeast 470 541 33,000  Level Montreal Center
11:15PM 56.3667 -66.6833 43° Northeast 470 541 33,000  Level Montreal Center
11:16PM 56.4500 -66.5000 51° Northeast 460 529 33,000  Level Montreal Center
11:17PM 56.5333 -66.3333 48° Northeast 460 529 33,000  Level Montreal Center
11:18PM 56.6167 -66.1500 50° Northeast 460 529 33,000  Level Montreal Center
11:19PM 56.7000 -65.9833 48° Northeast 470 541 33,000  Level Montreal Center
11:20PM 56.7833 -65.8333 45° Northeast 460 529 33,000  Level Montreal Center
11:21PM 56.8833 -65.6500 45° Northeast 470 541 33,000  Level Montreal Center
11:22PM 56.9333 -65.5667 42° Northeast 470 541 33,000  Level Gander Center
11:23PM 57.0167 -65.3833 50° Northeast 470 541 33,000  Level Gander Center
11:23PM 57.0500 -65.2833 58° Northeast 460 529 33,000  Level Montreal Center
11:24PM 57.1333 -65.1167 47° Northeast 460 529 33,000  Level Montreal Center
11:25PM 57.2167 -64.9333 50° Northeast 460 529 33,000  Level Montreal Center
11:26PM 57.3000 -64.7500 50° Northeast 460 529 33,000  Level Montreal Center
11:27PM 57.4000 -64.5667 45° Northeast 460 529 33,000  Level Montreal Center
11:28PM 57.4833 -64.3833 50° Northeast 470 541 33,000  Level Montreal Center
11:29PM 57.5667 -64.2000 50° Northeast 460 529 33,000  Level Montreal Center
11:30PM 57.6500 -64.0000 52° Northeast 470 541 33,000  Level Montreal Center
11:31PM 57.7000 -63.9667 20° North 460 529 33,000  Level Gander Center
11:31PM 57.7167 -63.8167 78° East 460 529 33,000  Level Montreal Center
11:32PM 57.8000 -63.6333 49° Northeast 460 529 33,000  Level Montreal Center
11:33PM 57.8833 -63.4833 44° Northeast 460 529 33,000  Level Montreal Center
11:34PM 57.9667 -63.2833 52° Northeast 460 529 33,000  Level Montreal Center
11:35PM 58.0500 -63.0667 54° Northeast 460 529 33,000  Level Montreal Center
11:36PM 58.1167 -62.8833 55° Northeast 470 541 33,000  Level Montreal Center
11:37PM 58.2000 -62.6333 58° Northeast 470 541 33,000  Level Montreal Center
11:38PM 58.2333 -62.5833 38° Northeast 470 541 33,000  Level Gander Center
11:39PM 58.3000 -62.3667 60° Northeast 470 541 33,000  Level Gander Center
11:39PM 58.3167 -62.3000 65° Northeast 470 541 33,000  Level Gander Center
11:40PM 58.3833 -62.0833 60° Northeast 470 541 33,000  Level Gander Center
11:41PM 58.4500 -61.8833 57° Northeast 470 541 33,000  Level Gander Center
11:42PM 58.5167 -61.6667 59° Northeast 470 541 33,000  Level Gander Center
11:43PM 58.5833 -61.3667 67° East 470 541 33,000  Level Montreal Center
11:44PM 58.6500 -61.1500 59° Northeast 470 541 33,000  Level Montreal Center
11:45PM 58.7000 -60.9167 68° East 480 552 33,000  Level Montreal Center
11:46PM 58.7833 -60.6833 55° Northeast 490 564 33,000  Level Montreal Center
11:47PM 58.8500 -60.4667 59° Northeast 490 564 33,000  Level Montreal Center
11:48PM 58.9167 -60.3167 49° Northeast 490 564 33,000  Level Gander Center
11:49PM 58.9833 -60.0833 61° Northeast 500 575 33,000  Level Gander Center
11:50PM 59.0667 -59.8500 55° Northeast 490 564 33,000  Level Gander Center
11:51PM 59.1500 -59.6833 46° Northeast 480 552 33,000  Level Gander Center
11:52PM 59.2333 -59.5000 48° Northeast 480 552 33,000  Level Gander Center
11:53PM 59.3333 -59.2833 48° Northeast 490 564 33,000  Level Gander Center
11:54PM 59.4333 -59.0833 45° Northeast 490 564 33,000  Level Gander Center
11:55PM 59.5167 -58.9167 45° Northeast 490 564 33,000  Level Gander Center
11:56PM 59.6167 -58.7167 45° Northeast 490 564 33,000  Level Gander Center
11:57PM 59.7000 -58.5167 50° Northeast 490 564 33,000  Level Gander Center
11:58PM 59.8000 -58.3000 47° Northeast 490 564 33,000  Level Gander Center
11:59PM 59.8833 -58.1333 45° Northeast 490 564 33,000  Level Gander Center
12:00AM 59.9500 -58.0000 45° Northeast 490 564 33,000  Level Gander Center
12:00AM 59.9833 -57.9167 51° Northeast 490 564 33,000  Level Gander Center
12:01AM 60.0333 -57.7833 53° Northeast 490 564 33,000  Level Gander Center
12:01AM 60.0667 -57.7167 45° Northeast 490 564 33,000  Level Gander Center
12:02AM 60.1333 -57.5667 48° Northeast 490 564 33,000  Level Gander Center
12:03AM 60.2333 -57.3667 45° Northeast 490 564 33,000  Level Gander Center
12:03AM 60.2500 -57.3000 63° Northeast 490 564 33,000  Level Gander Center
12:04AM 60.3333 -57.0833 52° Northeast 500 575 33,000  Level Gander Center
12:05AM 60.4333 -56.8667 47° Northeast 500 575 33,000  Level Gander Center
12:06AM 60.5167 -56.6833 47° Northeast 500 575 33,000  Level Gander Center
12:07AM 60.6167 -56.4667 47° Northeast 500 575 33,000  Level Gander Center
12:08AM 60.7167 -56.2500 47° Northeast 500 575 33,000  Level Gander Center
12:09AM 60.8000 -56.0333 52° Northeast 500 575 33,000  Level Gander Center
12:10AM 60.8833 -55.8167 52° Northeast 500 575 33,000  Level Gander Center
12:11AM 60.9667 -55.6000 52° Northeast 500 575 33,000  Level Gander Center
12:12AM 61.0500 -55.3667 54° Northeast 500 575 33,000  Level Gander Center
12:13AM 61.1500 -55.1500 46° Northeast 500 575 33,000  Level Gander Center
12:14AM 61.2333 -54.9333 51° Northeast 500 575 33,000  Level Gander Center
12:15AM 61.3333 -54.7000 48° Northeast 500 575 33,000  Level Gander Center
12:16AM 61.3833 -54.5167 60° Northeast 500 575 33,000  Level Gander Center
12:17AM 61.4667 -54.2833 53° Northeast 500 575 33,000  Level Gander Center
12:18AM 61.5667 -54.0667 46° Northeast 510 587 33,000  Level Gander Center
12:18AM 61.6000 -54.0167 35° Northeast 510 587 33,000  Level Gander Center
12:19AM 61.6500 -53.8333 60° Northeast 510 587 33,000  Level Gander Center
12:25AM 62.1120 -52.6310 60° Northeast 510 587 33,000  Level FlightAware
12:25AM 62.1610 -52.4960 52° Northeast 510 587 33,000  Level FlightAware
12:26AM 62.2380 -52.2740 53° Northeast 510 587 33,000  Level FlightAware
12:27AM 62.2930 -52.1190 53° Northeast 512 589 33,000  Level FlightAware
12:27AM 62.3370 -51.9900 54° Northeast 512 589 33,000  Level FlightAware
12:28AM 62.4080 -51.7850 53° Northeast 516 594 33,000  Level FlightAware
12:29AM 62.4730 -51.5960 53° Northeast 514 592 33,000  Level FlightAware
12:29AM 62.5350 -51.4140 53° Northeast 515 593 33,000  Level FlightAware
12:30AM 62.6150 -51.1780 54° Northeast 516 594 33,000  Level FlightAware
12:31AM 62.6660 -51.0250 54° Northeast 516 594 33,000  Level FlightAware
12:32AM 62.7320 -50.8270 54° Northeast 514 592 33,000  Level FlightAware
12:32AM 62.7860 -50.6620 54° Northeast 513 590 33,000  Level FlightAware
12:33AM 62.8410 -50.4930 54° Northeast 513 590 33,000  Level FlightAware
12:34AM 62.9040 -50.2980 55° Northeast 513 590 33,000  Level FlightAware
12:35AM 62.9550 -50.1420 54° Northeast 513 590 33,000  Level FlightAware
12:35AM 63.0060 -49.9420 61° Northeast 509 586 33,000  Level FlightAware
12:36AM 63.0380 -49.7340 71° East 510 587 33,000  Level FlightAware
12:37AM 63.0730 -49.4740 73° East 509 586 33,000  Level FlightAware
12:38AM 63.0960 -49.3050 73° East 509 586 33,000  Level FlightAware
12:38AM 63.1200 -49.1360 72° East 509 586 33,000  Level FlightAware
12:39AM 63.1490 -48.9240 73° East 509 586 33,000  Level FlightAware
12:40AM 63.1720 -48.7540 73° East 509 586 33,000  Level FlightAware
12:40AM 63.1960 -48.5850 72° East 509 586 33,000  Level FlightAware
12:41AM 63.2190 -48.4150 73° East 509 586 33,000  Level FlightAware
12:42AM 63.2430 -48.2450 73° East 509 586 33,000  Level FlightAware
12:43AM 63.2720 -48.0320 73° East 509 586 33,000  Level FlightAware
12:43AM 63.2950 -47.8620 73° East 509 586 33,000  Level FlightAware
12:44AM 63.3190 -47.6910 73° East 509 586 33,000  Level FlightAware
12:45AM 63.3420 -47.5210 73° East 509 586 33,000  Level FlightAware
12:45AM 63.3650 -47.3500 73° East 509 586 33,000  Level FlightAware
12:46AM 63.4167 -46.6667 76° East 500 575 33,000  Level Gander Center
12:46AM 63.3890 -47.1790 73° East 509 586 33,000  Level FlightAware
12:47AM 63.4667 -46.3833 68° East 510 587 33,000  Level Gander Center
12:48AM 63.4833 -46.0667 83° East 510 587 33,000  Level Gander Center
12:49AM 63.5167 -45.7833 75° East 510 587 33,000  Level Gander Center
12:50AM 63.5500 -45.5000 75° East 510 587 33,000  Level Gander Center
12:51AM 63.5363 -45.8019 76° East  Level FlightAware Approximate
12:52AM 63.6021 -44.9812 77° East  Level FlightAware Approximate
12:59AM 63.7933 -42.8678 78° East  Level FlightAware Approximate
01:00AM 63.8181 -42.5636 79° East  Level FlightAware Approximate
01:01AM 63.8422 -42.2589 80° East  Level FlightAware Approximate
01:02AM 63.8657 -41.9537 80° East  Level FlightAware Approximate
01:03AM 63.8885 -41.6479 80° East  Level FlightAware Approximate
01:04AM 63.9107 -41.3417 81° East  Level FlightAware Approximate
01:05AM 63.9323 -41.0350 81° East  Level FlightAware Approximate
01:06AM 63.9532 -40.7278 81° East  Level FlightAware Approximate
01:07AM 63.9734 -40.4202 81° East  Level FlightAware Approximate
01:08AM 63.9930 -40.1122 82° East  Level FlightAware Approximate
01:09AM 64.0242 -39.8096 74° East  Level FlightAware Approximate
01:10AM 64.0619 -39.5097 74° East  Level FlightAware Approximate
01:11AM 64.0988 -39.2090 74° East  Level FlightAware Approximate
01:12AM 64.1352 -38.9076 74° East  Level FlightAware Approximate
01:13AM 64.1731 -38.6067 73° East  Level FlightAware Approximate
01:14AM 64.2120 -38.3060 73° East  Level FlightAware Approximate
01:15AM 64.2502 -38.0045 74° East  Level FlightAware Approximate
01:16AM 64.2877 -37.7022 74° East  Level FlightAware Approximate
01:17AM 64.3247 -37.3990 74° East  Level FlightAware Approximate
01:18AM 64.3610 -37.0950 74° East  Level FlightAware Approximate
01:19AM 64.3967 -36.7902 75° East  Level FlightAware Approximate
01:20AM 64.4317 -36.4847 75° East  Level FlightAware Approximate
01:21AM 64.4662 -36.1783 75° East  Level FlightAware Approximate
01:22AM 64.4999 -35.8712 76° East  Level FlightAware Approximate
01:23AM 64.5331 -35.5634 76° East  Level FlightAware Approximate
01:24AM 64.5656 -35.2548 76° East  Level FlightAware Approximate
01:25AM 64.5971 -34.9453 77° East  Level FlightAware Approximate
01:26AM 64.6277 -34.6349 77° East  Level FlightAware Approximate
01:27AM 64.6575 -34.3238 77° East  Level FlightAware Approximate
01:28AM 64.6868 -34.0121 77° East  Level FlightAware Approximate
01:29AM 64.7153 -33.6996 78° East  Level FlightAware Approximate
01:30AM 64.7432 -33.3865 78° East  Level FlightAware Approximate
01:31AM 64.7705 -33.0728 78° East  Level FlightAware Approximate
01:32AM 64.7971 -32.7585 79° East  Level FlightAware Approximate
01:33AM 64.8230 -32.4435 79° East  Level FlightAware Approximate
01:34AM 64.8483 -32.1279 79° East  Level FlightAware Approximate
01:35AM 64.8728 -31.8118 79° East  Level FlightAware Approximate
01:36AM 64.8967 -31.4951 80° East  Level FlightAware Approximate
01:37AM 64.9200 -31.1778 80° East  Level FlightAware Approximate
01:38AM 64.9425 -30.8600 80° East  Level FlightAware Approximate
01:39AM 64.9644 -30.5416 81° East  Level FlightAware Approximate
01:40AM 64.9856 -30.2228 81° East  Level FlightAware Approximate
01:41AM 65.0125 -29.9069 72° East  Level FlightAware Approximate
01:42AM 65.0533 -29.5982 72° East  Level FlightAware Approximate
01:43AM 65.0935 -29.2887 73° East  Level FlightAware Approximate
01:44AM 65.1331 -28.9781 73° East  Level FlightAware Approximate
01:45AM 65.1721 -28.6667 73° East  Level FlightAware Approximate
01:46AM 65.2103 -28.3543 74° East  Level FlightAware Approximate
01:47AM 65.2480 -28.0411 74° East  Level FlightAware Approximate
01:48AM 65.2849 -27.7270 74° East  Level FlightAware Approximate
01:49AM 65.3213 -27.4119 74° East  Level FlightAware Approximate
01:50AM 65.3569 -27.0961 75° East  Level FlightAware Approximate
01:51AM 65.3919 -26.7794 75° East  Level FlightAware Approximate
01:52AM 65.4263 -26.4618 75° East  Level FlightAware Approximate
01:53AM 65.4600 -26.1434 76° East  Level FlightAware Approximate
01:54AM 65.4930 -25.8242 76° East  Level FlightAware Approximate
01:55AM 65.5253 -25.5042 76° East  Level FlightAware Approximate
01:56AM 65.5569 -25.1834 76° East  Level FlightAware Approximate
01:57AM 65.5909 -24.8637 75° East  Level FlightAware Approximate
01:58AM 65.6256 -24.5439 75° East  Level FlightAware Approximate
01:59AM 65.6597 -24.2233 75° East  Level FlightAware Approximate
02:00AM 65.6930 -23.9018 76° East  Level FlightAware Approximate
02:01AM 65.7232 -23.5782 77° East  Level FlightAware Approximate
02:01AM 65.7440 -23.3710 78° East 479 551 33,000  Level FlightAware
02:02AM 65.7520 -23.2534 78° East  Level FlightAware Approximate
02:02AM 65.7630 -23.1560 78° East 478 550 33,000  Level FlightAware
02:03AM 65.7830 -22.9230 78° East 478 550 33,000  Level FlightAware
02:04AM 65.8060 -22.6540 78° East 478 550 33,000  Level FlightAware
02:04AM 65.8250 -22.4130 79° East 481 554 33,000  Level FlightAware
02:05AM 65.8440 -22.1820 79° East 482 555 33,000  Level FlightAware
02:06AM 65.8600 -21.9680 80° East 485 558 33,000  Level FlightAware
02:07AM 65.8790 -21.7200 79° East 490 564 33,000  Level FlightAware
02:07AM 65.8960 -21.5050 79° East 492 566 33,000  Level FlightAware
02:08AM 65.9120 -21.2860 80° East 493 567 33,000  Level FlightAware
02:09AM 65.9290 -21.0420 80° East 492 566 33,000  Level FlightAware
02:09AM 65.9450 -20.8220 80° East 491 565 33,000  Level FlightAware
02:10AM 65.9600 -20.6060 80° East 489 563 33,000  Level FlightAware
02:11AM 65.9760 -20.3610 81° East 488 562 33,000  Level FlightAware
02:11AM 65.9910 -20.1360 81° East 492 566 33,000  Level FlightAware
02:12AM 66.0030 -19.8890 83° East 496 571 33,000  Level FlightAware
02:13AM 66.0110 -19.6640 85° East 499 574 33,000  Level FlightAware
02:13AM 66.0170 -19.4690 86° East 499 574 33,000  Level FlightAware
02:14AM 66.0240 -19.2760 85° East 499 574 33,000  Level FlightAware
02:15AM 66.0310 -19.0840 85° East 499 574 33,000  Level FlightAware
02:16AM 66.0400 -18.8430 85° East 499 574 33,000  Level FlightAware
02:16AM 66.0460 -18.6510 86° East 499 574 33,000  Level FlightAware
02:17AM 66.0530 -18.4580 85° East 499 574 33,000  Level FlightAware
02:18AM 66.0600 -18.2650 85° East 499 574 33,000  Level FlightAware
02:18AM 66.0670 -18.0730 85° East 499 574 33,000  Level FlightAware
02:19AM 66.0750 -17.8320 85° East 499 574 33,000  Level FlightAware
02:20AM 66.0650 -17.2610 92° East 510 587 33,000  Level FlightAware
02:20AM 66.0670 -17.0620 88° East 511 588 33,000  Level FlightAware
02:21AM 66.0710 -16.7640 88° East 513 590 33,000  Level FlightAware
02:22AM 66.0740 -16.5350 88° East 517 595 33,000  Level FlightAware
02:23AM 66.0760 -16.2650 89° East 520 598 33,000  Level FlightAware
02:23AM 66.0780 -16.0300 89° East 520 598 33,000  Level FlightAware
02:24AM 66.0790 -15.7910 89° East 521 600 33,000  Level FlightAware
02:25AM 66.0800 -15.5310 89° East 523 602 33,000  Level FlightAware
02:25AM 66.0810 -15.2920 89° East 525 604 33,000  Level FlightAware
02:26AM 66.0820 -15.0540 89° East 525 604 33,000  Level FlightAware
02:27AM 66.0840 -14.8500 89° East 525 604 33,000  Level FlightAware
02:27AM 66.0850 -14.6460 89° East 525 604 33,000  Level FlightAware
02:28AM 66.0870 -14.4430 89° East 525 604 33,000  Level FlightAware
02:29AM 66.0880 -14.2390 89° East 525 604 33,000  Level FlightAware
02:30AM 66.0900 -13.9840 89° East 525 604 33,000  Level FlightAware
02:30AM 66.0910 -13.7810 89° East 525 604 33,000  Level FlightAware
02:31AM 66.0930 -13.5770 89° East 525 604 33,000  Level FlightAware
02:32AM 66.0940 -13.3730 89° East 525 604 33,000  Level FlightAware
02:32AM 66.0950 -13.1690 89° East 525 604 33,000  Level FlightAware
02:33AM 66.0970 -12.9150 89° East 525 604 33,000  Level FlightAware
02:34AM 66.0990 -12.7110 89° East 525 604 33,000  Level FlightAware
02:34AM 66.1000 -12.5070 89° East 525 604 33,000  Level FlightAware
02:35AM 66.1020 -12.3030 89° East 525 604 33,000  Level FlightAware
02:38AM 66.0706 -11.5040 95° East  Level FlightAware Approximate
02:39AM 66.0562 -11.1693 96° East  Level FlightAware Approximate
02:40AM 66.0411 -10.8351 96° East  Level FlightAware Approximate
02:41AM 66.0252 -10.5012 97° East  Level FlightAware Approximate
02:42AM 66.0086 -10.1678 97° East  Level FlightAware Approximate
02:43AM 65.9886 -9.8324 99° East  Level FlightAware Approximate
02:44AM 65.9657 -9.5018 100° East  Level FlightAware Approximate
02:45AM 65.9421 -9.1717 100° East  Level FlightAware Approximate
02:46AM 65.9177 -8.8423 100° East  Level FlightAware Approximate
02:47AM 65.8926 -8.5136 100° East  Level FlightAware Approximate
02:48AM 65.8669 -8.1855 101° East  Level FlightAware Approximate
02:49AM 65.8404 -7.8580 101° East  Level FlightAware Approximate
02:50AM 65.8133 -7.5313 101° East  Level FlightAware Approximate
02:51AM 65.7854 -7.2052 102° East  Level FlightAware Approximate
02:52AM 65.7569 -6.8798 102° East  Level FlightAware Approximate
02:53AM 65.7276 -6.5552 102° East  Level FlightAware Approximate
02:54AM 65.6977 -6.2313 103° East  Level FlightAware Approximate
02:55AM 65.6671 -5.9082 103° East  Level FlightAware Approximate
02:56AM 65.6358 -5.5858 103° East  Level FlightAware Approximate
02:57AM 65.6038 -5.2643 103° East  Level FlightAware Approximate
02:58AM 65.5712 -4.9435 104° East  Level FlightAware Approximate
02:59AM 65.5394 -4.6226 103° East  Level FlightAware Approximate
03:00AM 65.5073 -4.3023 103° East  Level FlightAware Approximate
03:01AM 65.4744 -3.9829 104° East  Level FlightAware Approximate
03:02AM 65.4409 -3.6642 104° East  Level FlightAware Approximate
03:03AM 65.4068 -3.3463 104° East  Level FlightAware Approximate
03:04AM 65.3719 -3.0293 105° East  Level FlightAware Approximate
03:05AM 65.3364 -2.7132 105° East  Level FlightAware Approximate
03:06AM 65.3002 -2.3979 105° East  Level FlightAware Approximate
03:07AM 65.2634 -2.0835 106° East  Level FlightAware Approximate
03:08AM 65.2260 -1.7699 106° East  Level FlightAware Approximate
03:09AM 65.1878 -1.4573 106° East  Level FlightAware Approximate
03:10AM 65.1491 -1.1455 106° East  Level FlightAware Approximate
03:11AM 65.1096 -0.8347 107° East  Level FlightAware Approximate
03:12AM 65.0696 -0.5248 107° East  Level FlightAware Approximate
03:13AM 65.0289 -0.2158 107° East  Level FlightAware Approximate
03:14AM 64.9930 0.0953 100° East  Level FlightAware Approximate
03:15AM 64.9690 0.4132 100° East  Level FlightAware Approximate
03:16AM 64.9444 0.7304 100° East  Level FlightAware Approximate
03:17AM 64.9190 1.0471 101° East  Level FlightAware Approximate
03:18AM 64.8931 1.3632 101° East  Level FlightAware Approximate
03:19AM 64.8664 1.6786 101° East  Level FlightAware Approximate
03:19AM 64.6800 3.0780 101° East 509 586 35,000  Level FlightAware
03:20AM 64.8391 1.9934 101° East  Level FlightAware Approximate
03:20AM 64.6540 3.3040 105° East 509 586 35,000  Level FlightAware
03:21AM 64.6310 3.4970 105° East 507 583 35,000  Level FlightAware
03:22AM 64.5980 3.7690 106° East 507 583 35,000  Level FlightAware
03:22AM 64.5750 3.9560 106° East 508 585 35,000  Level FlightAware
03:23AM 64.5450 4.2010 106° East 508 585 35,000  Level FlightAware
03:24AM 64.5170 4.4290 106° East 508 585 35,000  Level FlightAware
03:24AM 64.4950 4.5980 107° East 507 583 35,000  Level FlightAware
03:25AM 64.4630 4.8470 106° East 508 585 35,000  Level FlightAware
03:26AM 64.4350 5.0600 107° East 509 586 35,000  Level FlightAware
03:27AM 64.4010 5.3190 107° East 508 585 35,000  Level FlightAware
03:27AM 64.3760 5.5030 107° East 507 583 35,000  Level FlightAware
03:28AM 64.3470 5.7200 107° East 508 585 35,000  Level FlightAware
03:29AM 64.3150 5.9470 108° East 509 586 35,000  Level FlightAware
03:29AM 64.2820 6.1830 108° East 508 585 35,000  Level FlightAware
03:30AM 64.2530 6.3900 108° East 510 587 35,000  Level FlightAware
03:31AM 64.2240 6.5920 108° East 509 586 35,000  Level FlightAware
03:31AM 64.1900 6.8280 108° East 507 583 35,000  Level FlightAware
03:32AM 64.1600 7.0350 108° East 507 583 35,000  Level FlightAware
03:33AM 64.1260 7.2610 109° East 508 585 35,000  Level FlightAware
03:34AM 64.0950 7.4700 109° East 507 583 35,000  Level FlightAware
03:34AM 64.0640 7.6680 110° East 505 581 35,000  Level FlightAware
03:35AM 64.0310 7.8890 109° East 505 581 35,000  Level FlightAware
03:36AM 63.9990 8.0940 110° East 505 581 35,000  Level FlightAware
03:36AM 63.9640 8.3170 110° East 506 582 35,000  Level FlightAware
03:37AM 63.9310 8.5190 110° East 510 587 35,000  Level FlightAware
03:38AM 63.9010 8.7090 110° East 510 587 35,000  Level FlightAware
03:38AM 63.8610 8.9500 111° Southeast 509 586 35,000  Level FlightAware
03:39AM 63.8310 9.1340 110° East 509 586 35,000  Level FlightAware
03:40AM 63.7910 9.3700 111° Southeast 509 586 35,000  Level FlightAware
03:41AM 63.7580 9.5690 110° East 509 586 35,000  Level FlightAware
03:41AM 63.7240 9.7690 111° Southeast 510 587 35,000  Level FlightAware
03:42AM 63.6860 9.9910 111° Southeast 512 589 35,000  Level FlightAware
03:43AM 63.6520 10.1860 111° Southeast 513 590 35,000  Level FlightAware
03:43AM 63.6150 10.3950 112° Southeast 516 594 35,000  Level FlightAware
03:44AM 63.5760 10.6100 112° Southeast 516 594 35,000  Level FlightAware
03:45AM 63.5400 10.8120 112° Southeast 514 592 35,000  Level FlightAware
03:45AM 63.5020 11.0300 111° Southeast 515 593 35,000  Level FlightAware
03:46AM 63.4700 11.2270 110° East 511 588 35,000  Level FlightAware
03:47AM 63.4360 11.4360 110° East 513 590 35,000  Level FlightAware
03:48AM 63.4000 11.6510 110° East 512 589 35,000  Level FlightAware
03:48AM 63.3660 11.8520 111° Southeast 509 586 35,000  Level FlightAware
03:49AM 63.3300 12.0590 111° Southeast 510 587 35,000  Level FlightAware
03:50AM 63.2990 12.2340 111° Southeast 511 588 35,000  Level FlightAware
03:50AM 63.2610 12.4510 111° Southeast 510 587 35,000  Level FlightAware
03:51AM 63.2200 12.6830 111° Southeast 511 588 35,000  Level FlightAware
03:52AM 63.1840 12.8850 111° Southeast 513 590 35,000  Level FlightAware
03:52AM 63.1450 13.0970 112° Southeast 513 590 35,000  Level FlightAware
03:53AM 63.1080 13.2990 112° Southeast 511 588 35,000  Level FlightAware
03:54AM 63.0680 13.5140 112° Southeast 511 588 35,000  Level FlightAware
03:54AM 63.0460 13.6300 113° Southeast 512 589 35,000  Level FlightAware
03:57AM 62.9418 14.2290 111° Southeast  Level Estimated
03:58AM 62.8921 14.5084 111° Southeast  Level Estimated
03:58AM 62.8670 14.5660 111° Southeast 509 586 35,000  Level FlightAware
03:59AM 62.7920 14.9430 113° Southeast 507 583 35,000  Level FlightAware
04:00AM 62.7530 15.1350 114° Southeast 510 587 35,000  Level FlightAware
04:00AM 62.7100 15.3460 114° Southeast 511 588 35,000  Level FlightAware
04:01AM 62.6720 15.5320 114° Southeast 511 588 35,000  Level FlightAware
04:02AM 62.6270 15.7480 114° Southeast 511 588 35,000  Level FlightAware
04:02AM 62.5890 15.9290 114° Southeast 511 588 35,000  Level FlightAware
04:03AM 62.5500 16.1150 114° Southeast 509 586 35,000  Level FlightAware
04:04AM 62.5060 16.3240 114° Southeast 509 586 35,000  Level FlightAware
04:05AM 62.4660 16.5080 115° Southeast 505 581 35,000  Level FlightAware
04:05AM 62.4210 16.7140 115° Southeast 505 581 35,000  Level FlightAware
04:06AM 62.3810 16.8970 115° Southeast 505 581 35,000  Level FlightAware
04:07AM 62.3410 17.0800 115° Southeast 505 581 35,000  Level FlightAware
04:07AM 62.2950 17.2840 116° Southeast 506 582 35,000  Level FlightAware
04:08AM 62.2540 17.4680 116° Southeast 506 582 35,000  Level FlightAware
04:09AM 62.2130 17.6480 116° Southeast 509 586 35,000  Level FlightAware
04:09AM 62.1660 17.8530 116° Southeast 510 587 35,000  Level FlightAware
04:10AM 62.1250 18.0320 116° Southeast 511 588 35,000  Level FlightAware
04:11AM 62.0770 18.2360 117° Southeast 513 590 35,000  Level FlightAware
04:12AM 62.0340 18.4170 117° Southeast 510 587 35,000  Level FlightAware
04:12AM 61.9920 18.5970 116° Southeast 511 588 35,000  Level FlightAware
04:13AM 61.9420 18.8040 117° Southeast 512 589 35,000  Level FlightAware
04:14AM 61.9010 18.9750 117° Southeast 511 588 35,000  Level FlightAware
04:14AM 61.8520 19.1760 117° Southeast 512 589 35,000  Level FlightAware
04:15AM 61.8080 19.3540 118° Southeast 516 594 35,000  Level FlightAware
04:16AM 61.7620 19.5380 118° Southeast 518 596 35,000  Level FlightAware
04:16AM 61.7090 19.7360 119° Southeast 513 590 35,000  Level FlightAware
04:17AM 61.6610 19.9070 121° Southeast 514 592 35,000  Level FlightAware
04:18AM 61.6120 20.0800 121° Southeast 515 593 35,000  Level FlightAware
04:19AM 61.5580 20.2720 121° Southeast 514 592 35,000  Level FlightAware
04:19AM 61.5030 20.4670 121° Southeast 515 593 35,000  Level FlightAware
04:20AM 61.4530 20.6410 121° Southeast 515 593 35,000  Level FlightAware
04:21AM 61.3980 20.8350 121° Southeast 514 592 35,000  Level FlightAware
04:21AM 61.3520 20.9920 121° Southeast 516 594 35,000  Level FlightAware
04:22AM 61.3070 21.1460 121° Southeast 511 588 35,000  Level FlightAware
04:23AM 61.2500 21.3400 121° Southeast 512 589 35,000  Level FlightAware
04:23AM 61.1950 21.5250 122° Southeast 518 596 35,000  Level FlightAware
04:24AM 61.1380 21.7140 122° Southeast 519 597 35,000  Level FlightAware
04:25AM 61.0870 21.8820 122° Southeast 519 597 35,000  Level FlightAware
04:26AM 61.0370 22.0490 122° Southeast 519 597 35,000  Level FlightAware
04:26AM 60.9790 22.2370 122° Southeast 519 597 35,000  Level FlightAware
04:27AM 60.9310 22.4090 120° Southeast 520 598 35,000  Level FlightAware
04:28AM 60.8820 22.6060 117° Southeast 522 601 35,000  Level FlightAware
04:28AM 60.8460 22.7890 112° Southeast 521 600 35,000  Level FlightAware
04:29AM 60.8180 22.9780 107° East 524 603 35,000  Level FlightAware
04:30AM 60.7880 23.1910 106° East 524 603 35,000  Level FlightAware
04:30AM 60.7600 23.3830 107° East 522 601 35,000  Level FlightAware
04:31AM 60.7280 23.5940 107° East 522 601 35,000  Level FlightAware
04:32AM 60.7000 23.7810 107° East 521 600 35,000  Level FlightAware
04:33AM 60.6710 23.9710 107° East 521 600 35,000  Level FlightAware
04:33AM 60.6380 24.1880 107° East 522 601 35,000  Level FlightAware
04:34AM 60.6100 24.3670 108° East 525 604 35,000  Level FlightAware
04:35AM 60.5770 24.5780 108° East 524 603 35,000  Level FlightAware
04:35AM 60.5460 24.7690 108° East 525 604 35,000  Level FlightAware
04:36AM 60.5150 24.9550 109° East 524 603 35,000  Level FlightAware
04:37AM 60.4810 25.1670 108° East 519 597 35,000  Level FlightAware
04:37AM 60.4520 25.3420 109° East 519 597 35,000  Level FlightAware
04:38AM 60.4210 25.5240 109° East 516 594 35,000  Level FlightAware
04:39AM 60.3850 25.7380 109° East 516 594 35,000  Level FlightAware
04:40AM 60.3570 25.9020 109° East 519 597 35,000  Level FlightAware
04:40AM 60.3240 26.0890 110° East 520 598 35,000  Level FlightAware
04:41AM 60.2870 26.3030 109° East 516 594 35,000  Level FlightAware
04:42AM 60.2570 26.4700 110° East 518 596 35,000  Level FlightAware
04:42AM 60.2170 26.6980 109° East 517 595 35,000  Level FlightAware
04:43AM 60.1830 26.8870 110° East 519 597 35,000  Level FlightAware
04:44AM 60.1570 27.0940 104° East 519 597 35,000  Level FlightAware
04:44AM 60.1390 27.2770 101° East 519 597 35,000  Level FlightAware
04:46AM 60.1070 27.5960 101° East 517 595 35,000  Level FlightAware
04:47AM 60.0760 27.9000 101° East 518 596 35,000  Level FlightAware
04:48AM 60.0400 28.2500 101° East 517 595 35,000  Level FlightAware
04:49AM 60.0180 28.4530 102° East 517 595 35,000  Level FlightAware
04:49AM 59.9950 28.6530 103° East 515 593 35,000 60 Level FlightAware
04:50AM 59.9780 28.7200 117° Southeast 514 592 35,100  Climbing FlightAware
04:50AM 59.9120 28.9330 122° Southeast 513 590 35,000 -120 Descending FlightAware
04:51AM 59.8610 29.0910 123° Southeast 514 592 35,000  Level FlightAware
04:52AM 59.8020 29.2830 121° Southeast 516 594 35,000  Level FlightAware
04:53AM 59.7520 29.4410 122° Southeast 514 592 35,000  Level FlightAware
04:53AM 59.7000 29.6050 122° Southeast 512 589 35,000  Level FlightAware
04:54AM 59.6460 29.7760 122° Southeast 511 588 35,000  Level FlightAware
04:55AM 59.5930 29.9390 123° Southeast 512 589 35,000  Level FlightAware
04:57AM 59.4315 30.3041 131° Southeast  Level Estimated
04:57AM 59.4220 30.4440 131° Southeast 504 580 35,000  Level FlightAware
04:58AM 59.3710 30.5930 124° Southeast 504 580 35,000  Level FlightAware
04:58AM 59.3180 30.7480 124° Southeast 504 580 35,000  Level FlightAware
04:59AM 59.2660 30.8960 124° Southeast 508 585 35,000  Level FlightAware
05:00AM 59.2040 31.0730 124° Southeast 509 586 35,000  Level FlightAware
05:00AM 59.1510 31.2220 125° Southeast 507 583 35,000  Level FlightAware
05:01AM 59.0910 31.3920 124° Southeast 507 583 35,000  Level FlightAware
05:02AM 59.0380 31.5400 125° Southeast 507 583 35,000  Level FlightAware
05:02AM 58.9780 31.7070 125° Southeast 506 582 35,000  Level FlightAware
05:03AM 58.9250 31.8540 125° Southeast 505 581 35,000  Level FlightAware
05:04AM 58.8720 32.0000 125° Southeast 504 580 35,000  Level FlightAware
05:05AM 58.8110 32.1640 126° Southeast 505 581 35,000  Level FlightAware
05:05AM 58.7560 32.3140 125° Southeast 507 583 35,000  Level FlightAware
05:06AM 58.6960 32.4740 126° Southeast 501 577 35,000  Level FlightAware
05:07AM 58.6420 32.6180 126° Southeast 501 577 35,000  Level FlightAware
05:07AM 58.5870 32.7650 126° Southeast 501 577 35,000  Level FlightAware
05:08AM 58.5260 32.9250 126° Southeast 501 577 35,000  Level FlightAware
05:09AM 58.4840 33.0400 125° Southeast 501 577 35,000  Level FlightAware
05:09AM 58.4390 33.1630 125° Southeast 501 577 35,000  Level FlightAware
05:10AM 58.3670 33.3450 127° Southeast 499 574 35,000  Level FlightAware
05:11AM 58.3030 33.5060 127° Southeast 503 579 35,000  Level FlightAware
05:12AM 58.2390 33.6680 127° Southeast 502 578 35,000  Level FlightAware
05:12AM 58.1940 33.7830 127° Southeast 502 578 35,000  Level FlightAware
05:13AM 58.1270 33.9510 127° Southeast 502 578 35,000  Level FlightAware
05:14AM 58.0620 34.1150 127° Southeast 502 578 35,000  Level FlightAware
05:14AM 57.9990 34.2710 127° Southeast 502 578 35,000  Level FlightAware
05:15AM 57.9460 34.4050 127° Southeast 503 579 35,000  Level FlightAware
05:16AM 57.8930 34.5350 127° Southeast 502 578 35,000  Level FlightAware
05:16AM 57.8280 34.6920 128° Southeast 502 578 35,000  Level FlightAware
05:17AM 57.7710 34.8320 127° Southeast 501 577 35,000  Level FlightAware
05:18AM 57.7140 34.9650 129° Southeast 500 575 35,000  Level FlightAware
05:19AM 57.6410 35.1100 133° Southeast 500 575 35,000  Level FlightAware
05:19AM 57.5770 35.2330 134° Southeast 501 577 35,000  Level FlightAware
05:20AM 57.5010 35.3770 134° Southeast 502 578 35,000  Level FlightAware
05:21AM 57.4350 35.5010 135° Southeast 502 578 35,000  Level FlightAware
05:21AM 57.3700 35.6230 135° Southeast 503 579 35,000  Level FlightAware
05:22AM 57.2990 35.7560 135° Southeast 502 578 35,000  Level FlightAware
05:23AM 57.2370 35.8720 135° Southeast 502 578 35,000  Level FlightAware
05:23AM 57.1600 36.0130 135° Southeast 501 577 35,000  Level FlightAware
05:24AM 57.0960 36.1320 135° Southeast 500 575 35,000  Level FlightAware
05:25AM 57.0290 36.2530 135° Southeast 510 587 35,000 -360 Level FlightAware
05:26AM 56.9560 36.3890 135° Southeast 522 601 34,500 -780 Descending FlightAware
05:26AM 56.8920 36.5100 134° Southeast 517 595 33,900 -1,380 Descending FlightAware
05:27AM 56.8080 36.6620 135° Southeast 509 586 32,600 -1,800 Descending FlightAware
05:28AM 56.7420 36.7800 136° Southeast 502 578 31,400 -1,200 Descending FlightAware
05:28AM 56.6770 36.8950 136° Southeast 491 565 31,000 -540 Descending FlightAware
05:29AM 56.6020 37.0270 136° Southeast 509 586 30,700 -1,680 Descending FlightAware
05:30AM 56.5360 37.1420 136° Southeast 500 575 28,700 -3,120 Descending FlightAware
05:30AM 56.4690 37.2570 137° Southeast 489 563 26,600 -3,060 Descending FlightAware
05:31AM 56.3990 37.3780 136° Southeast 476 548 24,400 -2,880 Descending FlightAware
05:32AM 56.3240 37.4610 148° Southeast 462 532 22,600 -2,700 Descending FlightAware
05:32AM 56.2480 37.5150 158° South 447 514 20,800 -2,580 Descending FlightAware
05:33AM 56.1640 37.5730 159° South 430 495 19,000 -1,980 Descending FlightAware
05:34AM 56.0920 37.6220 159° South 393 452 18,000 -1,560 Descending FlightAware
05:35AM 56.0130 37.6760 159° South 375 432 16,800 -1,440 Descending FlightAware
05:35AM 55.9560 37.7440 146° Southeast 366 421 16,000 -780 Descending FlightAware
05:36AM 55.9000 37.8160 144° Southeast 339 390 15,700 -900 Descending FlightAware
05:37AM 55.8440 37.8640 154° Southeast 335 386 14,800 -1,200 Descending FlightAware
05:37AM 55.7820 37.8670 178° South 329 379 14,100 -720 Descending FlightAware
05:38AM 55.7300 37.8670 180° South 311 358 13,900 -480 Descending FlightAware
05:39AM 55.6640 37.8660 180° South 283 326 13,500 -600 Descending FlightAware
05:39AM 55.6440 37.8560 196° South 274 315 13,300 -1,020 Descending FlightAware
05:40AM 55.6010 37.8120 210° Southwest 273 314 12,600 -960 Descending FlightAware
05:40AM 55.5900 37.8100 186° South 278 320 12,500 -840 Descending FlightAware
05:40AM 55.5660 37.8240 162° South 278 320 12,200 -1,200 Descending FlightAware
05:41AM 55.5290 37.8860 137° Southeast 280 322 11,300 -1,200 Descending FlightAware
05:42AM 55.4890 37.9570 135° Southeast 269 310 10,500 -1,020 Descending FlightAware
05:42AM 55.4510 38.0230 135° Southeast 261 300 9,900 -900 Descending FlightAware
05:43AM 55.4410 38.0390 138° Southeast 254 292 9,700 -900 Descending FlightAware
05:43AM 55.4160 38.0740 142° Southeast 244 281 9,300 -1,020 Descending FlightAware
05:43AM 55.3890 38.1060 146° Southeast 239 275 8,800 -1,080 Descending FlightAware
05:44AM 55.3750 38.1230 145° Southeast 235 270 8,500 -1,080 Descending FlightAware
05:44AM 55.3530 38.1490 146° Southeast 236 272 8,100 -600 Descending FlightAware
05:45AM 55.3240 38.1830 146° Southeast 237 273 8,000 -180 Descending FlightAware
05:45AM 55.3130 38.1950 148° Southeast 238 274 8,000  Level FlightAware
05:45AM 55.2870 38.2250 147° Southeast 236 272 8,000 -240 Level FlightAware
05:46AM 55.2630 38.2530 146° Southeast 236 272 7,800 -540 Descending FlightAware
05:46AM 55.2350 38.2860 146° Southeast 234 269 7,500 -600 Descending FlightAware
05:47AM 55.2120 38.3140 145° Southeast 231 266 7,300 -660 Descending FlightAware
05:47AM 55.1870 38.3430 146° Southeast 231 266 6,900 -960 Descending FlightAware
05:47AM 55.1720 38.3490 167° South 225 259 6,600 -1,200 Descending FlightAware
05:48AM 55.1590 38.3420 197° South 220 253 6,400 -960 Descending FlightAware
05:48AM 55.1500 38.3290 220° Southwest 215 247 6,200 -960 Descending FlightAware
05:48AM 55.1310 38.2870 232° Southwest 205 236 5,700 -900 Descending FlightAware
05:49AM 55.1300 38.2750 262° West 200 230 5,600 -900 Descending FlightAware
05:49AM 55.1470 38.2370 308° West 199 229 5,100 -840 Descending FlightAware
05:50AM 55.1680 38.2130 327° Northwest 199 229 4,800 -540 Descending FlightAware
05:50AM 55.1810 38.1970 325° Northwest 209 241 4,700 -480 Descending FlightAware
05:50AM 55.2000 38.1750 327° Northwest 203 234 4,500 -600 Descending FlightAware
05:51AM 55.2240 38.1460 325° Northwest 204 235 4,200 -780 Descending FlightAware
05:51AM 55.2440 38.1230 327° Northwest 208 239 3,800 -1,080 Descending FlightAware
05:51AM 55.2560 38.1070 323° Northwest 210 242 3,500 -1,080 Descending FlightAware
05:52AM 55.2790 38.0810 327° Northwest 209 241 3,000 -1,140 Descending FlightAware
05:52AM 55.3010 38.0550 326° Northwest 194 223 2,500 -1,140 Descending FlightAware
05:53AM 55.3200 38.0310 324° Northwest 167 192 2,000 -900 Descending FlightAware
05:53AM 55.3390 38.0090 327° Northwest 155 178 1,600 -780 Descending FlightAware
05:54AM 55.3530 37.9920 325° Northwest 151 174 1,300 -780 Descending FlightAware
05:54AM 55.3690 37.9730 326° Northwest 153 176 900 -840 Descending FlightAware
05:54AM 55.3780 37.9620 325° Northwest 155 178 700 -480 Descending FlightAware
05:55AM 55.4030 37.9320 326° Northwest 157 181 500 -300 Descending FlightAware
05:58AM 55.4000 37.9000 127° Southeast  Level FlightAware Approximate